sensor_id;sensor_type;location;lat;lon;timestamp;P1;durP1;ratioP1;P2;durP2;ratioP2
58784;SDS011;44557;51.862;19.378;2022-09-14T00:00:22;15.40;;;13.40;;
58784;SDS011;44557;51.862;19.378;2022-09-14T00:01:44;15.00;;;12.50;;
58784;SDS011;44557;51.862;19.378;2022-09-14T00:02:45;15.60;;;12.50;;
58784;SDS011;44557;51.862;19.378;2022-09-14T00:03:50;15.70;;;13.40;;
58784;SDS011;44557;51.862;19.378;2022-09-14T00:04:53;16.10;;;12.30;;
58784;SDS011;44557;51.862;19.378;2022-09-14T00:05:54;14.50;;;12.30;;
58784;SDS011;44557;51.862;19.378;2022-09-14T00:06:56;15.80;;;12.60;;
58784;SDS011;44557;51.862;19.378;2022-09-14T00:07:57;14.20;;;12.30;;
58784;SDS011;44557;51.862;19.378;2022-09-14T00:08:59;14.40;;;12.40;;
58784;SDS011;44557;51.862;19.378;2022-09-14T00:10:02;13.80;;;12.10;;
58784;SDS011;44557;51.862;19.378;2022-09-14T00:11:05;14.40;;;12.20;;
58784;SDS011;44557;51.862;19.378;2022-09-14T00:12:09;14.80;;;13.20;;
58784;SDS011;44557;51.862;19.378;2022-09-14T00:13:11;15.60;;;12.60;;
58784;SDS011;44557;51.862;19.378;2022-09-14T00:14:17;15.80;;;12.70;;
58784;SDS011;44557;51.862;19.378;2022-09-14T00:15:19;14.40;;;12.80;;
58784;SDS011;44557;51.862;19.378;2022-09-14T00:16:23;15.20;;;12.90;;
58784;SDS011;44557;51.862;19.378;2022-09-14T00:17:30;14.70;;;12.40;;
58784;SDS011;44557;51.862;19.378;2022-09-14T00:18:32;16.40;;;13.30;;
58784;SDS011;44557;51.862;19.378;2022-09-14T00:19:34;16.20;;;13.70;;
58784;SDS011;44557;51.862;19.378;2022-09-14T00:20:36;14.60;;;13.00;;
58784;SDS011;44557;51.862;19.378;2022-09-14T00:21:38;16.80;;;12.90;;
58784;SDS011;44557;51.862;19.378;2022-09-14T00:22:40;15.20;;;13.30;;
58784;SDS011;44557;51.862;19.378;2022-09-14T00:23:41;14.70;;;12.80;;
58784;SDS011;44557;51.862;19.378;2022-09-14T00:24:43;15.70;;;12.90;;
58784;SDS011;44557;51.862;19.378;2022-09-14T00:25:44;17.10;;;13.10;;
58784;SDS011;44557;51.862;19.378;2022-09-14T00:26:46;15.50;;;12.50;;
58784;SDS011;44557;51.862;19.378;2022-09-14T00:27:48;14.60;;;13.10;;
58784;SDS011;44557;51.862;19.378;2022-09-14T00:28:51;16.10;;;13.60;;
58784;SDS011;44557;51.862;19.378;2022-09-14T00:29:54;15.70;;;14.00;;
58784;SDS011;44557;51.862;19.378;2022-09-14T00:30:56;16.30;;;13.30;;
58784;SDS011;44557;51.862;19.378;2022-09-14T00:31:57;16.80;;;13.80;;
58784;SDS011;44557;51.862;19.378;2022-09-14T00:33:00;16.30;;;14.10;;
58784;SDS011;44557;51.862;19.378;2022-09-14T00:34:01;16.00;;;13.70;;
58784;SDS011;44557;51.862;19.378;2022-09-14T00:35:04;17.60;;;14.30;;
58784;SDS011;44557;51.862;19.378;2022-09-14T00:36:07;16.20;;;13.90;;
58784;SDS011;44557;51.862;19.378;2022-09-14T00:37:11;16.90;;;13.80;;
58784;SDS011;44557;51.862;19.378;2022-09-14T00:38:13;17.30;;;13.70;;
58784;SDS011;44557;51.862;19.378;2022-09-14T00:39:15;15.00;;;13.20;;
58784;SDS011;44557;51.862;19.378;2022-09-14T00:40:18;15.70;;;13.30;;
58784;SDS011;44557;51.862;19.378;2022-09-14T00:41:21;15.80;;;13.90;;
58784;SDS011;44557;51.862;19.378;2022-09-14T00:42:28;15.80;;;13.90;;
58784;SDS011;44557;51.862;19.378;2022-09-14T00:43:29;16.50;;;13.20;;
58784;SDS011;44557;51.862;19.378;2022-09-14T00:45:33;16.80;;;13.80;;
58784;SDS011;44557;51.862;19.378;2022-09-14T00:46:36;14.60;;;13.00;;
58784;SDS011;44557;51.862;19.378;2022-09-14T00:47:39;16.70;;;13.60;;
58784;SDS011;44557;51.862;19.378;2022-09-14T00:48:41;15.90;;;13.60;;
58784;SDS011;44557;51.862;19.378;2022-09-14T00:49:43;16.80;;;14.00;;
58784;SDS011;44557;51.862;19.378;2022-09-14T00:50:45;17.20;;;13.90;;
58784;SDS011;44557;51.862;19.378;2022-09-14T00:51:53;18.60;;;14.30;;
58784;SDS011;44557;51.862;19.378;2022-09-14T00:53:00;18.10;;;14.80;;
58784;SDS011;44557;51.862;19.378;2022-09-14T00:54:02;17.10;;;13.80;;
58784;SDS011;44557;51.862;19.378;2022-09-14T00:55:06;15.90;;;13.90;;
58784;SDS011;44557;51.862;19.378;2022-09-14T00:56:14;16.90;;;15.10;;
58784;SDS011;44557;51.862;19.378;2022-09-14T00:57:16;16.00;;;14.20;;
58784;SDS011;44557;51.862;19.378;2022-09-14T00:58:19;17.60;;;14.00;;
58784;SDS011;44557;51.862;19.378;2022-09-14T00:59:22;16.30;;;13.70;;
58784;SDS011;44557;51.862;19.378;2022-09-14T01:00:27;17.00;;;14.20;;
58784;SDS011;44557;51.862;19.378;2022-09-14T01:01:30;16.70;;;14.30;;
58784;SDS011;44557;51.862;19.378;2022-09-14T01:02:32;17.40;;;14.50;;
58784;SDS011;44557;51.862;19.378;2022-09-14T01:03:33;16.90;;;14.20;;
58784;SDS011;44557;51.862;19.378;2022-09-14T01:04:35;17.30;;;15.10;;
58784;SDS011;44557;51.862;19.378;2022-09-14T01:08:40;17.50;;;14.80;;
58784;SDS011;44557;51.862;19.378;2022-09-14T01:11:22;16.80;;;15.00;;
58784;SDS011;44557;51.862;19.378;2022-09-14T01:12:47;17.70;;;15.70;;
58784;SDS011;44557;51.862;19.378;2022-09-14T01:15:15;16.80;;;14.90;;
58784;SDS011;44557;51.862;19.378;2022-09-14T01:16:32;17.60;;;14.80;;
58784;SDS011;44557;51.862;19.378;2022-09-14T01:18:28;15.50;;;13.90;;
58784;SDS011;44557;51.862;19.378;2022-09-14T01:19:33;16.30;;;14.60;;
58784;SDS011;44557;51.862;19.378;2022-09-14T01:21:43;16.60;;;14.70;;
58784;SDS011;44557;51.862;19.378;2022-09-14T01:26:05;18.90;;;16.90;;
58784;SDS011;44557;51.862;19.378;2022-09-14T01:27:30;20.60;;;17.00;;
58784;SDS011;44557;51.862;19.378;2022-09-14T01:28:49;19.90;;;16.20;;
58784;SDS011;44557;51.862;19.378;2022-09-14T01:30:06;18.60;;;16.40;;
58784;SDS011;44557;51.862;19.378;2022-09-14T01:31:14;19.80;;;17.10;;
58784;SDS011;44557;51.862;19.378;2022-09-14T01:32:23;18.30;;;16.30;;
58784;SDS011;44557;51.862;19.378;2022-09-14T01:33:31;19.20;;;16.50;;
58784;SDS011;44557;51.862;19.378;2022-09-14T01:35:47;19.40;;;16.60;;
58784;SDS011;44557;51.862;19.378;2022-09-14T01:36:56;18.70;;;16.40;;
58784;SDS011;44557;51.862;19.378;2022-09-14T01:38:09;20.20;;;16.90;;
58784;SDS011;44557;51.862;19.378;2022-09-14T01:39:44;18.90;;;16.50;;
58784;SDS011;44557;51.862;19.378;2022-09-14T01:40:51;23.20;;;17.80;;
58784;SDS011;44557;51.862;19.378;2022-09-14T01:41:52;21.60;;;18.40;;
58784;SDS011;44557;51.862;19.378;2022-09-14T01:44:31;21.90;;;17.80;;
58784;SDS011;44557;51.862;19.378;2022-09-14T01:45:38;20.30;;;17.60;;
58784;SDS011;44557;51.862;19.378;2022-09-14T01:46:45;20.70;;;17.10;;
58784;SDS011;44557;51.862;19.378;2022-09-14T01:47:53;20.90;;;18.10;;
58784;SDS011;44557;51.862;19.378;2022-09-14T01:48:59;21.40;;;17.80;;
58784;SDS011;44557;51.862;19.378;2022-09-14T01:50:05;21.00;;;18.00;;
58784;SDS011;44557;51.862;19.378;2022-09-14T01:51:13;20.40;;;18.20;;
58784;SDS011;44557;51.862;19.378;2022-09-14T01:52:24;20.10;;;17.40;;
58784;SDS011;44557;51.862;19.378;2022-09-14T01:53:34;22.80;;;17.50;;
58784;SDS011;44557;51.862;19.378;2022-09-14T01:55:09;21.20;;;18.10;;
58784;SDS011;44557;51.862;19.378;2022-09-14T01:56:25;22.10;;;18.00;;
58784;SDS011;44557;51.862;19.378;2022-09-14T01:57:34;20.40;;;17.80;;
58784;SDS011;44557;51.862;19.378;2022-09-14T01:59:59;21.70;;;17.40;;
58784;SDS011;44557;51.862;19.378;2022-09-14T02:01:05;21.30;;;17.20;;
58784;SDS011;44557;51.862;19.378;2022-09-14T02:02:14;19.70;;;16.40;;
58784;SDS011;44557;51.862;19.378;2022-09-14T02:03:22;19.30;;;16.40;;
58784;SDS011;44557;51.862;19.378;2022-09-14T02:05:05;19.90;;;17.50;;
58784;SDS011;44557;51.862;19.378;2022-09-14T02:06:02;20.40;;;16.90;;
58784;SDS011;44557;51.862;19.378;2022-09-14T02:07:19;21.90;;;16.60;;
58784;SDS011;44557;51.862;19.378;2022-09-14T02:08:23;22.00;;;16.70;;
58784;SDS011;44557;51.862;19.378;2022-09-14T02:09:27;20.50;;;16.70;;
58784;SDS011;44557;51.862;19.378;2022-09-14T02:10:29;20.40;;;17.00;;
58784;SDS011;44557;51.862;19.378;2022-09-14T02:11:32;21.90;;;17.10;;
58784;SDS011;44557;51.862;19.378;2022-09-14T02:12:33;19.20;;;16.30;;
58784;SDS011;44557;51.862;19.378;2022-09-14T02:13:36;19.70;;;15.90;;
58784;SDS011;44557;51.862;19.378;2022-09-14T02:14:38;19.00;;;15.40;;
58784;SDS011;44557;51.862;19.378;2022-09-14T02:15:39;19.30;;;15.50;;
58784;SDS011;44557;51.862;19.378;2022-09-14T02:16:41;18.20;;;15.40;;
58784;SDS011;44557;51.862;19.378;2022-09-14T02:17:46;17.70;;;15.80;;
58784;SDS011;44557;51.862;19.378;2022-09-14T02:18:48;20.70;;;16.40;;
58784;SDS011;44557;51.862;19.378;2022-09-14T02:19:52;18.60;;;16.50;;
58784;SDS011;44557;51.862;19.378;2022-09-14T02:20:58;19.30;;;16.50;;
58784;SDS011;44557;51.862;19.378;2022-09-14T02:22:03;18.50;;;15.50;;
58784;SDS011;44557;51.862;19.378;2022-09-14T02:23:05;19.30;;;16.40;;
58784;SDS011;44557;51.862;19.378;2022-09-14T02:24:07;18.70;;;16.30;;
58784;SDS011;44557;51.862;19.378;2022-09-14T02:25:10;18.20;;;16.20;;
58784;SDS011;44557;51.862;19.378;2022-09-14T02:26:12;19.80;;;16.90;;
58784;SDS011;44557;51.862;19.378;2022-09-14T02:27:15;18.80;;;16.80;;
58784;SDS011;44557;51.862;19.378;2022-09-14T02:28:17;19.40;;;17.10;;
58784;SDS011;44557;51.862;19.378;2022-09-14T02:29:18;20.00;;;16.60;;
58784;SDS011;44557;51.862;19.378;2022-09-14T02:30:20;19.60;;;17.20;;
58784;SDS011;44557;51.862;19.378;2022-09-14T02:31:33;18.70;;;16.20;;
58784;SDS011;44557;51.862;19.378;2022-09-14T02:33:10;19.20;;;17.10;;
58784;SDS011;44557;51.862;19.378;2022-09-14T02:35:51;19.40;;;17.20;;
58784;SDS011;44557;51.862;19.378;2022-09-14T02:36:59;19.20;;;16.50;;
58784;SDS011;44557;51.862;19.378;2022-09-14T02:38:17;18.00;;;15.90;;
58784;SDS011;44557;51.862;19.378;2022-09-14T02:39:37;18.90;;;16.80;;
58784;SDS011;44557;51.862;19.378;2022-09-14T02:44:00;18.20;;;15.90;;
58784;SDS011;44557;51.862;19.378;2022-09-14T02:47:01;20.80;;;17.30;;
58784;SDS011;44557;51.862;19.378;2022-09-14T02:49:35;19.20;;;16.70;;
58784;SDS011;44557;51.862;19.378;2022-09-14T02:51:05;20.30;;;16.70;;
58784;SDS011;44557;51.862;19.378;2022-09-14T02:52:19;21.00;;;17.30;;
58784;SDS011;44557;51.862;19.378;2022-09-14T02:53:36;19.30;;;16.90;;
58784;SDS011;44557;51.862;19.378;2022-09-14T02:55:04;19.00;;;16.90;;
58784;SDS011;44557;51.862;19.378;2022-09-14T02:56:12;19.60;;;17.50;;
58784;SDS011;44557;51.862;19.378;2022-09-14T02:57:16;18.90;;;16.50;;
58784;SDS011;44557;51.862;19.378;2022-09-14T02:58:18;19.70;;;17.10;;
58784;SDS011;44557;51.862;19.378;2022-09-14T02:59:20;20.00;;;17.20;;
58784;SDS011;44557;51.862;19.378;2022-09-14T03:00:21;18.40;;;16.50;;
58784;SDS011;44557;51.862;19.378;2022-09-14T03:01:23;19.50;;;17.40;;
58784;SDS011;44557;51.862;19.378;2022-09-14T03:02:25;19.00;;;16.70;;
58784;SDS011;44557;51.862;19.378;2022-09-14T03:03:27;18.40;;;16.30;;
58784;SDS011;44557;51.862;19.378;2022-09-14T03:04:28;20.70;;;17.00;;
58784;SDS011;44557;51.862;19.378;2022-09-14T03:05:30;19.30;;;16.80;;
58784;SDS011;44557;51.862;19.378;2022-09-14T03:06:32;17.90;;;15.80;;
58784;SDS011;44557;51.862;19.378;2022-09-14T03:07:34;18.40;;;16.40;;
58784;SDS011;44557;51.862;19.378;2022-09-14T03:08:35;19.80;;;16.70;;
58784;SDS011;44557;51.862;19.378;2022-09-14T03:09:37;19.80;;;17.60;;
58784;SDS011;44557;51.862;19.378;2022-09-14T03:10:40;19.20;;;17.10;;
58784;SDS011;44557;51.862;19.378;2022-09-14T03:11:43;19.40;;;17.00;;
58784;SDS011;44557;51.862;19.378;2022-09-14T03:12:45;19.00;;;17.00;;
58784;SDS011;44557;51.862;19.378;2022-09-14T03:13:47;19.50;;;17.40;;
58784;SDS011;44557;51.862;19.378;2022-09-14T03:14:49;19.00;;;17.00;;
58784;SDS011;44557;51.862;19.378;2022-09-14T03:15:51;18.90;;;16.90;;
58784;SDS011;44557;51.862;19.378;2022-09-14T03:16:53;19.30;;;17.30;;
58784;SDS011;44557;51.862;19.378;2022-09-14T03:17:54;21.10;;;17.60;;
58784;SDS011;44557;51.862;19.378;2022-09-14T03:18:56;21.80;;;17.90;;
58784;SDS011;44557;51.862;19.378;2022-09-14T03:19:58;20.60;;;17.50;;
58784;SDS011;44557;51.862;19.378;2022-09-14T03:21:07;18.80;;;16.60;;
58784;SDS011;44557;51.862;19.378;2022-09-14T03:22:10;19.90;;;17.20;;
58784;SDS011;44557;51.862;19.378;2022-09-14T03:23:12;19.30;;;17.20;;
58784;SDS011;44557;51.862;19.378;2022-09-14T03:24:15;21.10;;;17.30;;
58784;SDS011;44557;51.862;19.378;2022-09-14T03:25:16;17.60;;;15.60;;
58784;SDS011;44557;51.862;19.378;2022-09-14T03:26:20;19.30;;;16.80;;
58784;SDS011;44557;51.862;19.378;2022-09-14T03:27:23;18.40;;;16.50;;
58784;SDS011;44557;51.862;19.378;2022-09-14T03:28:25;18.40;;;16.40;;
58784;SDS011;44557;51.862;19.378;2022-09-14T03:29:26;20.00;;;17.20;;
58784;SDS011;44557;51.862;19.378;2022-09-14T03:30:27;19.00;;;16.60;;
58784;SDS011;44557;51.862;19.378;2022-09-14T03:31:29;22.20;;;17.40;;
58784;SDS011;44557;51.862;19.378;2022-09-14T03:32:32;20.00;;;17.50;;
58784;SDS011;44557;51.862;19.378;2022-09-14T03:33:34;19.30;;;16.70;;
58784;SDS011;44557;51.862;19.378;2022-09-14T03:34:36;19.50;;;17.30;;
58784;SDS011;44557;51.862;19.378;2022-09-14T03:35:38;18.10;;;16.10;;
58784;SDS011;44557;51.862;19.378;2022-09-14T03:36:39;19.90;;;17.10;;
58784;SDS011;44557;51.862;19.378;2022-09-14T03:37:41;19.70;;;16.80;;
58784;SDS011;44557;51.862;19.378;2022-09-14T03:38:44;18.00;;;15.80;;
58784;SDS011;44557;51.862;19.378;2022-09-14T03:39:48;17.70;;;15.80;;
58784;SDS011;44557;51.862;19.378;2022-09-14T03:40:49;18.50;;;16.30;;
58784;SDS011;44557;51.862;19.378;2022-09-14T03:41:51;18.00;;;16.10;;
58784;SDS011;44557;51.862;19.378;2022-09-14T03:42:53;18.80;;;16.80;;
58784;SDS011;44557;51.862;19.378;2022-09-14T03:43:55;19.80;;;17.00;;
58784;SDS011;44557;51.862;19.378;2022-09-14T03:44:56;18.80;;;16.50;;
58784;SDS011;44557;51.862;19.378;2022-09-14T03:46:03;20.20;;;16.60;;
58784;SDS011;44557;51.862;19.378;2022-09-14T03:47:06;17.70;;;15.80;;
58784;SDS011;44557;51.862;19.378;2022-09-14T03:48:08;20.70;;;16.50;;
58784;SDS011;44557;51.862;19.378;2022-09-14T03:49:11;20.10;;;16.80;;
58784;SDS011;44557;51.862;19.378;2022-09-14T03:50:13;19.30;;;16.30;;
58784;SDS011;44557;51.862;19.378;2022-09-14T03:51:15;19.40;;;16.70;;
58784;SDS011;44557;51.862;19.378;2022-09-14T03:52:17;18.40;;;16.50;;
58784;SDS011;44557;51.862;19.378;2022-09-14T03:53:20;20.50;;;16.60;;
58784;SDS011;44557;51.862;19.378;2022-09-14T03:54:21;19.20;;;15.90;;
58784;SDS011;44557;51.862;19.378;2022-09-14T03:55:23;19.20;;;16.00;;
58784;SDS011;44557;51.862;19.378;2022-09-14T03:56:24;17.40;;;15.60;;
58784;SDS011;44557;51.862;19.378;2022-09-14T03:57:26;17.80;;;15.90;;
58784;SDS011;44557;51.862;19.378;2022-09-14T03:58:29;19.20;;;16.20;;
58784;SDS011;44557;51.862;19.378;2022-09-14T03:59:32;16.80;;;15.00;;
58784;SDS011;44557;51.862;19.378;2022-09-14T04:00:34;18.00;;;15.50;;
58784;SDS011;44557;51.862;19.378;2022-09-14T04:01:36;17.80;;;15.80;;
58784;SDS011;44557;51.862;19.378;2022-09-14T04:02:38;17.80;;;15.80;;
58784;SDS011;44557;51.862;19.378;2022-09-14T04:03:41;17.80;;;15.70;;
58784;SDS011;44557;51.862;19.378;2022-09-14T04:04:43;19.50;;;16.60;;
58784;SDS011;44557;51.862;19.378;2022-09-14T04:05:52;18.00;;;15.40;;
58784;SDS011;44557;51.862;19.378;2022-09-14T04:06:56;18.80;;;15.50;;
58784;SDS011;44557;51.862;19.378;2022-09-14T04:07:57;18.90;;;15.90;;
58784;SDS011;44557;51.862;19.378;2022-09-14T04:08:59;17.50;;;15.50;;
58784;SDS011;44557;51.862;19.378;2022-09-14T04:10:00;20.30;;;16.40;;
58784;SDS011;44557;51.862;19.378;2022-09-14T04:11:05;19.40;;;15.80;;
58784;SDS011;44557;51.862;19.378;2022-09-14T04:12:09;19.40;;;16.40;;
58784;SDS011;44557;51.862;19.378;2022-09-14T04:13:11;18.00;;;15.80;;
58784;SDS011;44557;51.862;19.378;2022-09-14T04:14:13;18.60;;;16.30;;
58784;SDS011;44557;51.862;19.378;2022-09-14T04:15:15;19.00;;;16.40;;
58784;SDS011;44557;51.862;19.378;2022-09-14T04:16:18;19.00;;;17.00;;
58784;SDS011;44557;51.862;19.378;2022-09-14T04:17:23;19.50;;;16.10;;
58784;SDS011;44557;51.862;19.378;2022-09-14T04:18:26;18.40;;;16.50;;
58784;SDS011;44557;51.862;19.378;2022-09-14T04:19:28;20.30;;;17.20;;
58784;SDS011;44557;51.862;19.378;2022-09-14T04:20:30;19.90;;;17.60;;
58784;SDS011;44557;51.862;19.378;2022-09-14T04:21:31;19.90;;;16.50;;
58784;SDS011;44557;51.862;19.378;2022-09-14T04:22:33;20.80;;;17.10;;
58784;SDS011;44557;51.862;19.378;2022-09-14T04:23:35;19.90;;;17.60;;
58784;SDS011;44557;51.862;19.378;2022-09-14T04:24:37;20.00;;;17.00;;
58784;SDS011;44557;51.862;19.378;2022-09-14T04:25:38;22.20;;;18.00;;
58784;SDS011;44557;51.862;19.378;2022-09-14T04:26:40;21.40;;;17.70;;
58784;SDS011;44557;51.862;19.378;2022-09-14T04:27:42;24.60;;;19.10;;
58784;SDS011;44557;51.862;19.378;2022-09-14T04:28:43;22.40;;;18.60;;
58784;SDS011;44557;51.862;19.378;2022-09-14T04:29:47;22.80;;;18.00;;
58784;SDS011;44557;51.862;19.378;2022-09-14T04:30:56;21.50;;;17.60;;
58784;SDS011;44557;51.862;19.378;2022-09-14T04:31:59;21.30;;;17.90;;
58784;SDS011;44557;51.862;19.378;2022-09-14T04:33:01;21.80;;;18.10;;
58784;SDS011;44557;51.862;19.378;2022-09-14T04:34:03;21.40;;;17.10;;
58784;SDS011;44557;51.862;19.378;2022-09-14T04:35:05;22.90;;;17.50;;
58784;SDS011;44557;51.862;19.378;2022-09-14T04:36:08;21.80;;;18.00;;
58784;SDS011;44557;51.862;19.378;2022-09-14T04:37:11;22.70;;;18.20;;
58784;SDS011;44557;51.862;19.378;2022-09-14T04:38:13;22.20;;;18.20;;
58784;SDS011;44557;51.862;19.378;2022-09-14T04:39:14;20.90;;;17.50;;
58784;SDS011;44557;51.862;19.378;2022-09-14T04:40:17;21.60;;;17.20;;
58784;SDS011;44557;51.862;19.378;2022-09-14T04:41:18;22.90;;;17.20;;
58784;SDS011;44557;51.862;19.378;2022-09-14T04:42:21;22.70;;;17.80;;
58784;SDS011;44557;51.862;19.378;2022-09-14T04:43:23;22.10;;;17.20;;
58784;SDS011;44557;51.862;19.378;2022-09-14T04:44:26;22.00;;;18.70;;
58784;SDS011;44557;51.862;19.378;2022-09-14T04:45:27;22.30;;;19.20;;
58784;SDS011;44557;51.862;19.378;2022-09-14T04:46:30;22.60;;;18.60;;
58784;SDS011;44557;51.862;19.378;2022-09-14T04:47:35;23.10;;;17.90;;
58784;SDS011;44557;51.862;19.378;2022-09-14T04:48:37;24.60;;;18.10;;
58784;SDS011;44557;51.862;19.378;2022-09-14T04:49:39;22.50;;;18.30;;
58784;SDS011;44557;51.862;19.378;2022-09-14T04:50:40;23.40;;;18.50;;
58784;SDS011;44557;51.862;19.378;2022-09-14T04:51:43;23.90;;;18.30;;
58784;SDS011;44557;51.862;19.378;2022-09-14T04:52:45;23.30;;;17.90;;
58784;SDS011;44557;51.862;19.378;2022-09-14T04:53:47;22.30;;;18.10;;
58784;SDS011;44557;51.862;19.378;2022-09-14T04:54:50;23.50;;;18.00;;
58784;SDS011;44557;51.862;19.378;2022-09-14T04:55:52;21.50;;;17.80;;
58784;SDS011;44557;51.862;19.378;2022-09-14T04:56:53;23.60;;;18.40;;
58784;SDS011;44557;51.862;19.378;2022-09-14T04:57:55;24.90;;;19.00;;
58784;SDS011;44557;51.862;19.378;2022-09-14T04:58:57;24.50;;;18.60;;
58784;SDS011;44557;51.862;19.378;2022-09-14T05:00:00;25.60;;;18.60;;
58784;SDS011;44557;51.862;19.378;2022-09-14T05:01:06;24.70;;;19.40;;
58784;SDS011;44557;51.862;19.378;2022-09-14T05:02:10;24.70;;;19.40;;
58784;SDS011;44557;51.862;19.378;2022-09-14T05:03:11;23.00;;;18.80;;
58784;SDS011;44557;51.862;19.378;2022-09-14T05:04:13;25.70;;;19.90;;
58784;SDS011;44557;51.862;19.378;2022-09-14T05:05:15;28.10;;;21.40;;
58784;SDS011;44557;51.862;19.378;2022-09-14T05:06:17;24.90;;;19.10;;
58784;SDS011;44557;51.862;19.378;2022-09-14T05:07:20;23.80;;;19.60;;
58784;SDS011;44557;51.862;19.378;2022-09-14T05:08:22;25.80;;;20.30;;
58784;SDS011;44557;51.862;19.378;2022-09-14T05:09:23;25.10;;;19.80;;
58784;SDS011;44557;51.862;19.378;2022-09-14T05:10:25;25.00;;;19.30;;
58784;SDS011;44557;51.862;19.378;2022-09-14T05:11:28;23.30;;;19.30;;
58784;SDS011;44557;51.862;19.378;2022-09-14T05:12:31;25.50;;;20.60;;
58784;SDS011;44557;51.862;19.378;2022-09-14T05:13:33;25.60;;;20.10;;
58784;SDS011;44557;51.862;19.378;2022-09-14T05:14:35;23.80;;;19.80;;
58784;SDS011;44557;51.862;19.378;2022-09-14T05:15:36;25.50;;;19.50;;
58784;SDS011;44557;51.862;19.378;2022-09-14T05:16:38;24.40;;;20.30;;
58784;SDS011;44557;51.862;19.378;2022-09-14T05:17:41;25.90;;;20.40;;
58784;SDS011;44557;51.862;19.378;2022-09-14T05:18:43;24.30;;;20.40;;
58784;SDS011;44557;51.862;19.378;2022-09-14T05:19:45;23.70;;;18.60;;
58784;SDS011;44557;51.862;19.378;2022-09-14T05:20:47;24.90;;;18.00;;
58784;SDS011;44557;51.862;19.378;2022-09-14T05:21:48;24.20;;;20.20;;
58784;SDS011;44557;51.862;19.378;2022-09-14T05:22:50;25.20;;;19.30;;
58784;SDS011;44557;51.862;19.378;2022-09-14T05:23:52;23.30;;;18.70;;
58784;SDS011;44557;51.862;19.378;2022-09-14T05:25:01;23.60;;;18.70;;
58784;SDS011;44557;51.862;19.378;2022-09-14T05:26:03;24.70;;;19.80;;
58784;SDS011;44557;51.862;19.378;2022-09-14T05:27:06;24.00;;;19.10;;
58784;SDS011;44557;51.862;19.378;2022-09-14T05:28:08;24.70;;;18.40;;
58784;SDS011;44557;51.862;19.378;2022-09-14T05:29:13;23.70;;;18.00;;
58784;SDS011;44557;51.862;19.378;2022-09-14T05:30:17;23.80;;;18.50;;
58784;SDS011;44557;51.862;19.378;2022-09-14T05:31:19;24.90;;;18.60;;
58784;SDS011;44557;51.862;19.378;2022-09-14T05:32:21;25.80;;;19.70;;
58784;SDS011;44557;51.862;19.378;2022-09-14T05:33:23;24.70;;;18.50;;
58784;SDS011;44557;51.862;19.378;2022-09-14T05:34:24;23.90;;;18.50;;
58784;SDS011;44557;51.862;19.378;2022-09-14T05:35:26;25.10;;;18.20;;
58784;SDS011;44557;51.862;19.378;2022-09-14T05:36:27;21.40;;;17.50;;
58784;SDS011;44557;51.862;19.378;2022-09-14T05:37:29;23.40;;;17.10;;
58784;SDS011;44557;51.862;19.378;2022-09-14T05:38:31;22.60;;;17.60;;
58784;SDS011;44557;51.862;19.378;2022-09-14T05:39:35;22.80;;;16.50;;
58784;SDS011;44557;51.862;19.378;2022-09-14T05:40:36;20.90;;;16.60;;
58784;SDS011;44557;51.862;19.378;2022-09-14T05:41:37;22.00;;;18.00;;
58784;SDS011;44557;51.862;19.378;2022-09-14T05:42:39;22.50;;;16.50;;
58784;SDS011;44557;51.862;19.378;2022-09-14T05:43:41;22.90;;;17.20;;
58784;SDS011;44557;51.862;19.378;2022-09-14T05:44:43;24.80;;;17.80;;
58784;SDS011;44557;51.862;19.378;2022-09-14T05:45:45;24.40;;;18.80;;
58784;SDS011;44557;51.862;19.378;2022-09-14T05:46:46;21.70;;;17.10;;
58784;SDS011;44557;51.862;19.378;2022-09-14T05:47:48;22.70;;;17.50;;
58784;SDS011;44557;51.862;19.378;2022-09-14T05:48:49;22.50;;;17.80;;
58784;SDS011;44557;51.862;19.378;2022-09-14T05:49:52;22.80;;;16.80;;
58784;SDS011;44557;51.862;19.378;2022-09-14T05:50:57;19.50;;;15.20;;
58784;SDS011;44557;51.862;19.378;2022-09-14T05:51:59;20.70;;;16.30;;
58784;SDS011;44557;51.862;19.378;2022-09-14T05:53:01;21.10;;;16.00;;
58784;SDS011;44557;51.862;19.378;2022-09-14T05:54:02;21.20;;;15.30;;
58784;SDS011;44557;51.862;19.378;2022-09-14T05:55:09;21.40;;;16.00;;
58784;SDS011;44557;51.862;19.378;2022-09-14T05:56:12;21.30;;;16.20;;
58784;SDS011;44557;51.862;19.378;2022-09-14T05:57:14;21.10;;;16.00;;
58784;SDS011;44557;51.862;19.378;2022-09-14T05:58:15;20.30;;;15.10;;
58784;SDS011;44557;51.862;19.378;2022-09-14T05:59:18;22.50;;;15.00;;
58784;SDS011;44557;51.862;19.378;2022-09-14T06:00:20;21.50;;;16.60;;
58784;SDS011;44557;51.862;19.378;2022-09-14T06:01:26;20.80;;;16.20;;
58784;SDS011;44557;51.862;19.378;2022-09-14T06:02:30;22.20;;;17.20;;
58784;SDS011;44557;51.862;19.378;2022-09-14T06:03:31;21.60;;;16.80;;
58784;SDS011;44557;51.862;19.378;2022-09-14T06:04:33;23.10;;;16.60;;
58784;SDS011;44557;51.862;19.378;2022-09-14T06:05:36;22.20;;;16.50;;
58784;SDS011;44557;51.862;19.378;2022-09-14T06:06:37;21.00;;;16.40;;
58784;SDS011;44557;51.862;19.378;2022-09-14T06:07:39;21.60;;;16.00;;
58784;SDS011;44557;51.862;19.378;2022-09-14T06:08:41;20.70;;;15.60;;
58784;SDS011;44557;51.862;19.378;2022-09-14T06:09:44;20.60;;;16.30;;
58784;SDS011;44557;51.862;19.378;2022-09-14T06:10:45;20.90;;;16.70;;
58784;SDS011;44557;51.862;19.378;2022-09-14T06:11:47;21.30;;;16.80;;
58784;SDS011;44557;51.862;19.378;2022-09-14T06:12:48;22.70;;;15.90;;
58784;SDS011;44557;51.862;19.378;2022-09-14T06:13:50;20.90;;;16.30;;
58784;SDS011;44557;51.862;19.378;2022-09-14T06:14:51;23.00;;;17.00;;
58784;SDS011;44557;51.862;19.378;2022-09-14T06:15:53;21.40;;;16.20;;
58784;SDS011;44557;51.862;19.378;2022-09-14T06:16:54;23.40;;;16.20;;
58784;SDS011;44557;51.862;19.378;2022-09-14T06:17:56;22.70;;;16.50;;
58784;SDS011;44557;51.862;19.378;2022-09-14T06:18:58;19.90;;;15.50;;
58784;SDS011;44557;51.862;19.378;2022-09-14T06:20:00;20.50;;;15.90;;
58784;SDS011;44557;51.862;19.378;2022-09-14T06:21:01;20.00;;;15.60;;
58784;SDS011;44557;51.862;19.378;2022-09-14T06:22:04;18.60;;;14.70;;
58784;SDS011;44557;51.862;19.378;2022-09-14T06:23:05;21.70;;;15.60;;
58784;SDS011;44557;51.862;19.378;2022-09-14T06:24:08;19.30;;;14.70;;
58784;SDS011;44557;51.862;19.378;2022-09-14T06:25:12;19.30;;;14.70;;
58784;SDS011;44557;51.862;19.378;2022-09-14T06:26:14;20.20;;;15.00;;
58784;SDS011;44557;51.862;19.378;2022-09-14T06:27:16;21.50;;;15.60;;
58784;SDS011;44557;51.862;19.378;2022-09-14T06:28:18;20.70;;;15.10;;
58784;SDS011;44557;51.862;19.378;2022-09-14T06:29:19;19.20;;;14.40;;
58784;SDS011;44557;51.862;19.378;2022-09-14T06:30:21;17.10;;;13.50;;
58784;SDS011;44557;51.862;19.378;2022-09-14T06:31:23;17.80;;;14.90;;
58784;SDS011;44557;51.862;19.378;2022-09-14T06:32:25;18.70;;;14.60;;
58784;SDS011;44557;51.862;19.378;2022-09-14T06:33:30;19.70;;;14.10;;